sensor_id;sensor_type;location;lat;lon;timestamp;pressure;altitude;pressure_sealevel;temperature;humidity
3598;BME280;1813;52.016;8.714;2023-02-01T00:01:29;-16261.94;;;-139.71;75.01
3598;BME280;1813;52.016;8.714;2023-02-01T00:04:03;-16261.94;;;-139.71;75.26
3598;BME280;1813;52.016;8.714;2023-02-01T00:06:37;-16261.94;;;-139.71;75.31
3598;BME280;1813;52.016;8.714;2023-02-01T00:09:11;-16261.94;;;-139.71;75.36
3598;BME280;1813;52.016;8.714;2023-02-01T00:11:45;-16261.94;;;-139.71;75.40
3598;BME280;1813;52.016;8.714;2023-02-01T00:14:22;-16261.94;;;-139.71;75.28
3598;BME280;1813;52.016;8.714;2023-02-01T00:16:55;-16261.94;;;-139.71;75.24
3598;BME280;1813;52.016;8.714;2023-02-01T00:19:29;-16261.94;;;-139.71;75.03
3598;BME280;1813;52.016;8.714;2023-02-01T00:22:03;-16261.94;;;-139.71;75.03
3598;BME280;1813;52.016;8.714;2023-02-01T00:24:37;-16261.94;;;-139.71;74.99
3598;BME280;1813;52.016;8.714;2023-02-01T00:27:11;-16261.94;;;-139.71;75.16
3598;BME280;1813;52.016;8.714;2023-02-01T00:29:50;-16261.94;;;-139.71;75.03
3598;BME280;1813;52.016;8.714;2023-02-01T00:32:24;-16261.94;;;-139.71;75.02
3598;BME280;1813;52.016;8.714;2023-02-01T00:34:58;-16261.94;;;-139.71;75.02
3598;BME280;1813;52.016;8.714;2023-02-01T00:37:32;-16261.94;;;-139.71;74.96
3598;BME280;1813;52.016;8.714;2023-02-01T00:40:08;-16261.94;;;-139.71;74.92
3598;BME280;1813;52.016;8.714;2023-02-01T00:42:42;-16261.94;;;-139.71;75.02
3598;BME280;1813;52.016;8.714;2023-02-01T00:45:18;-16261.94;;;-139.71;74.76
3598;BME280;1813;52.016;8.714;2023-02-01T00:47:52;-16261.94;;;-139.71;74.91
3598;BME280;1813;52.016;8.714;2023-02-01T00:50:25;-16261.94;;;-139.71;74.83
3598;BME280;1813;52.016;8.714;2023-02-01T00:52:59;-16261.94;;;-139.71;74.66
3598;BME280;1813;52.016;8.714;2023-02-01T00:55:33;-16261.94;;;-139.71;74.78
3598;BME280;1813;52.016;8.714;2023-02-01T00:58:07;-16261.94;;;-139.71;74.64
3598;BME280;1813;52.016;8.714;2023-02-01T01:00:44;-16261.94;;;-139.71;74.81
3598;BME280;1813;52.016;8.714;2023-02-01T01:03:19;-16261.94;;;-139.71;74.75
3598;BME280;1813;52.016;8.714;2023-02-01T01:05:56;-16261.94;;;-139.71;74.89
3598;BME280;1813;52.016;8.714;2023-02-01T01:08:31;-16261.94;;;-139.71;74.97
3598;BME280;1813;52.016;8.714;2023-02-01T01:11:06;-16261.94;;;-139.71;74.98
3598;BME280;1813;52.016;8.714;2023-02-01T01:13:41;-16261.94;;;-139.71;74.95
3598;BME280;1813;52.016;8.714;2023-02-01T01:16:19;-16261.94;;;-139.71;74.84
3598;BME280;1813;52.016;8.714;2023-02-01T01:18:53;-16261.94;;;-139.71;74.92
3598;BME280;1813;52.016;8.714;2023-02-01T01:21:27;-16261.94;;;-139.71;74.99
3598;BME280;1813;52.016;8.714;2023-02-01T01:24:01;-16261.94;;;-139.71;74.98
3598;BME280;1813;52.016;8.714;2023-02-01T01:26:35;-16261.94;;;-139.71;74.89
3598;BME280;1813;52.016;8.714;2023-02-01T01:29:09;-16261.94;;;-139.71;75.03
3598;BME280;1813;52.016;8.714;2023-02-01T01:31:46;-16261.94;;;-139.71;75.04
3598;BME280;1813;52.016;8.714;2023-02-01T01:34:20;-16261.94;;;-139.71;75.45
3598;BME280;1813;52.016;8.714;2023-02-01T01:36:54;-16261.94;;;-139.71;75.43
3598;BME280;1813;52.016;8.714;2023-02-01T01:39:28;-16261.94;;;-139.71;75.33
3598;BME280;1813;52.016;8.714;2023-02-01T01:42:03;-16261.94;;;-139.71;75.38
3598;BME280;1813;52.016;8.714;2023-02-01T01:44:56;-16261.94;;;-139.71;75.38
3598;BME280;1813;52.016;8.714;2023-02-01T01:47:37;-16261.94;;;-139.71;75.49
3598;BME280;1813;52.016;8.714;2023-02-01T01:50:18;-16261.94;;;-139.71;75.56
3598;BME280;1813;52.016;8.714;2023-02-01T01:52:55;-16261.94;;;-139.71;75.54
3598;BME280;1813;52.016;8.714;2023-02-01T01:55:32;-16261.94;;;-139.71;75.55
3598;BME280;1813;52.016;8.714;2023-02-01T01:58:12;-16261.94;;;-139.71;75.44
3598;BME280;1813;52.016;8.714;2023-02-01T02:00:47;-16261.94;;;-139.71;75.51
3598;BME280;1813;52.016;8.714;2023-02-01T02:03:28;-16261.94;;;-139.71;75.34
3598;BME280;1813;52.016;8.714;2023-02-01T02:06:11;-16261.94;;;-139.71;75.53
3598;BME280;1813;52.016;8.714;2023-02-01T02:08:46;-16261.94;;;-139.71;75.43
3598;BME280;1813;52.016;8.714;2023-02-01T02:11:20;-16261.94;;;-139.71;75.28
3598;BME280;1813;52.016;8.714;2023-02-01T02:13:54;-16261.94;;;-139.71;75.36
3598;BME280;1813;52.016;8.714;2023-02-01T02:16:40;-16261.94;;;-139.71;75.16
3598;BME280;1813;52.016;8.714;2023-02-01T02:19:45;-16261.94;;;-139.71;75.24
3598;BME280;1813;52.016;8.714;2023-02-01T02:22:40;-16261.94;;;-139.71;75.10
3598;BME280;1813;52.016;8.714;2023-02-01T02:25:32;-16261.94;;;-139.71;75.14
3598;BME280;1813;52.016;8.714;2023-02-01T02:28:24;-16261.94;;;-139.71;74.84
3598;BME280;1813;52.016;8.714;2023-02-01T02:31:25;-16261.94;;;-139.71;74.81
3598;BME280;1813;52.016;8.714;2023-02-01T02:34:13;-16261.94;;;-139.71;74.67
3598;BME280;1813;52.016;8.714;2023-02-01T02:36:58;-16261.94;;;-139.71;74.50
3598;BME280;1813;52.016;8.714;2023-02-01T02:39:44;-16261.94;;;-139.71;74.32
3598;BME280;1813;52.016;8.714;2023-02-01T02:42:29;-16261.94;;;-139.71;74.08
3598;BME280;1813;52.016;8.714;2023-02-01T02:45:27;-16261.94;;;-139.71;74.03
3598;BME280;1813;52.016;8.714;2023-02-01T02:48:19;-16261.94;;;-139.71;74.01
3598;BME280;1813;52.016;8.714;2023-02-01T02:51:01;-16261.94;;;-139.71;74.14
3598;BME280;1813;52.016;8.714;2023-02-01T02:53:55;-16261.94;;;-139.71;74.02
3598;BME280;1813;52.016;8.714;2023-02-01T02:56:42;-16261.94;;;-139.71;73.78
3598;BME280;1813;52.016;8.714;2023-02-01T02:59:30;-16261.94;;;-139.71;73.97
3598;BME280;1813;52.016;8.714;2023-02-01T03:02:17;-16261.94;;;-139.71;73.73
3598;BME280;1813;52.016;8.714;2023-02-01T03:05:04;-16261.94;;;-139.71;73.61
3598;BME280;1813;52.016;8.714;2023-02-01T03:08:00;-16261.94;;;-139.71;73.25
3598;BME280;1813;52.016;8.714;2023-02-01T03:10:43;-16261.94;;;-139.71;73.10
3598;BME280;1813;52.016;8.714;2023-02-01T03:13:26;-16261.94;;;-139.71;72.90
3598;BME280;1813;52.016;8.714;2023-02-01T03:16:03;-16261.94;;;-139.71;72.72
3598;BME280;1813;52.016;8.714;2023-02-01T03:18:46;-16261.94;;;-139.71;72.38
3598;BME280;1813;52.016;8.714;2023-02-01T03:21:26;-16261.94;;;-139.71;72.33
3598;BME280;1813;52.016;8.714;2023-02-01T03:24:08;-16261.94;;;-139.71;72.13
3598;BME280;1813;52.016;8.714;2023-02-01T03:26:49;-16261.94;;;-139.71;71.94
3598;BME280;1813;52.016;8.714;2023-02-01T03:29:29;-16261.94;;;-139.71;71.71
3598;BME280;1813;52.016;8.714;2023-02-01T03:32:05;-16261.94;;;-139.71;71.62
3598;BME280;1813;52.016;8.714;2023-02-01T03:34:40;-16261.94;;;-139.71;71.30
3598;BME280;1813;52.016;8.714;2023-02-01T03:37:17;-16261.94;;;-139.71;71.07
3598;BME280;1813;52.016;8.714;2023-02-01T03:39:58;-16261.94;;;-139.71;70.81
3598;BME280;1813;52.016;8.714;2023-02-01T03:42:37;-16261.94;;;-139.71;70.65
3598;BME280;1813;52.016;8.714;2023-02-01T03:45:16;-16261.94;;;-139.71;70.59
3598;BME280;1813;52.016;8.714;2023-02-01T03:47:56;-16261.94;;;-139.71;70.34
3598;BME280;1813;52.016;8.714;2023-02-01T03:50:35;-16261.94;;;-139.71;70.25
3598;BME280;1813;52.016;8.714;2023-02-01T03:53:14;-16261.94;;;-139.71;70.00
3598;BME280;1813;52.016;8.714;2023-02-01T03:55:53;-16261.94;;;-139.71;69.81
3598;BME280;1813;52.016;8.714;2023-02-01T03:58:28;-16261.94;;;-139.71;69.74
3598;BME280;1813;52.016;8.714;2023-02-01T04:01:02;-16261.94;;;-139.71;69.52
3598;BME280;1813;52.016;8.714;2023-02-01T04:03:40;-16261.94;;;-139.71;69.63
3598;BME280;1813;52.016;8.714;2023-02-01T04:06:15;-16261.94;;;-139.71;69.35
3598;BME280;1813;52.016;8.714;2023-02-01T04:08:49;-16261.94;;;-139.71;69.31
3598;BME280;1813;52.016;8.714;2023-02-01T04:11:25;-16261.94;;;-139.71;69.21
3598;BME280;1813;52.016;8.714;2023-02-01T04:14:00;-16261.94;;;-139.71;69.14
3598;BME280;1813;52.016;8.714;2023-02-01T04:16:35;-16261.94;;;-139.71;69.23
3598;BME280;1813;52.016;8.714;2023-02-01T04:19:08;-16261.94;;;-139.71;69.29
3598;BME280;1813;52.016;8.714;2023-02-01T04:21:42;-16261.94;;;-139.71;69.28
3598;BME280;1813;52.016;8.714;2023-02-01T04:24:16;-16261.94;;;-139.71;69.24
3598;BME280;1813;52.016;8.714;2023-02-01T04:26:52;-16261.94;;;-139.71;69.18
3598;BME280;1813;52.016;8.714;2023-02-01T04:29:26;-16261.94;;;-139.71;69.33
3598;BME280;1813;52.016;8.714;2023-02-01T04:32:00;-16261.94;;;-139.71;69.55
3598;BME280;1813;52.016;8.714;2023-02-01T04:34:34;-16261.94;;;-139.71;69.52
3598;BME280;1813;52.016;8.714;2023-02-01T04:37:08;-16261.94;;;-139.71;69.65
3598;BME280;1813;52.016;8.714;2023-02-01T04:39:41;-16261.94;;;-139.71;69.76
3598;BME280;1813;52.016;8.714;2023-02-01T04:42:18;-16261.94;;;-139.71;69.84
3598;BME280;1813;52.016;8.714;2023-02-01T04:44:51;-16261.94;;;-139.71;70.06
3598;BME280;1813;52.016;8.714;2023-02-01T04:47:25;-16261.94;;;-139.71;70.20
3598;BME280;1813;52.016;8.714;2023-02-01T04:49:59;-16261.94;;;-139.71;70.28
3598;BME280;1813;52.016;8.714;2023-02-01T04:52:33;-16261.94;;;-139.71;70.33
3598;BME280;1813;52.016;8.714;2023-02-01T04:55:08;-16261.94;;;-139.71;70.43
3598;BME280;1813;52.016;8.714;2023-02-01T04:57:44;-16261.94;;;-139.71;70.63
3598;BME280;1813;52.016;8.714;2023-02-01T05:00:18;-16261.94;;;-139.71;70.96
3598;BME280;1813;52.016;8.714;2023-02-01T05:02:52;-16261.94;;;-139.71;71.49
3598;BME280;1813;52.016;8.714;2023-02-01T05:05:26;-16261.94;;;-139.71;72.17
3598;BME280;1813;52.016;8.714;2023-02-01T05:08:00;-16261.94;;;-139.71;72.71
3598;BME280;1813;52.016;8.714;2023-02-01T05:10:34;-16261.94;;;-139.71;73.29
3598;BME280;1813;52.016;8.714;2023-02-01T05:13:12;-16261.94;;;-139.71;73.81
3598;BME280;1813;52.016;8.714;2023-02-01T05:15:58;-16261.94;;;-139.71;74.37
3598;BME280;1813;52.016;8.714;2023-02-01T05:18:32;-16261.94;;;-139.71;74.78
3598;BME280;1813;52.016;8.714;2023-02-01T05:21:06;-16261.94;;;-139.71;75.14
3598;BME280;1813;52.016;8.714;2023-02-01T05:23:40;-16261.94;;;-139.71;75.33
3598;BME280;1813;52.016;8.714;2023-02-01T05:26:26;-16261.94;;;-139.71;75.72
3598;BME280;1813;52.016;8.714;2023-02-01T05:29:03;-16261.94;;;-139.71;75.68
3598;BME280;1813;52.016;8.714;2023-02-01T05:31:37;-16261.94;;;-139.71;75.90
3598;BME280;1813;52.016;8.714;2023-02-01T05:34:10;-16261.94;;;-139.71;76.05
3598;BME280;1813;52.016;8.714;2023-02-01T05:36:44;-16261.94;;;-139.71;76.23
3598;BME280;1813;52.016;8.714;2023-02-01T05:39:18;-16261.94;;;-139.71;76.54
3598;BME280;1813;52.016;8.714;2023-02-01T05:41:52;-16261.94;;;-139.71;76.77
3598;BME280;1813;52.016;8.714;2023-02-01T05:44:28;-16261.94;;;-139.71;77.03
3598;BME280;1813;52.016;8.714;2023-02-01T05:47:02;-16261.94;;;-139.71;77.30
3598;BME280;1813;52.016;8.714;2023-02-01T05:49:36;-16261.94;;;-139.71;77.34
3598;BME280;1813;52.016;8.714;2023-02-01T05:52:10;-16261.94;;;-139.71;77.52
3598;BME280;1813;52.016;8.714;2023-02-01T05:54:43;-16261.94;;;-139.71;77.63
3598;BME280;1813;52.016;8.714;2023-02-01T05:57:17;-16261.94;;;-139.71;77.55
3598;BME280;1813;52.016;8.714;2023-02-01T05:59:53;-16261.94;;;-139.71;77.54
3598;BME280;1813;52.016;8.714;2023-02-01T06:02:27;-16261.94;;;-139.71;77.37
3598;BME280;1813;52.016;8.714;2023-02-01T06:05:01;-16261.94;;;-139.71;77.39
3598;BME280;1813;52.016;8.714;2023-02-01T06:07:34;-16261.94;;;-139.71;77.27
3598;BME280;1813;52.016;8.714;2023-02-01T06:10:09;-16261.94;;;-139.71;77.04
3598;BME280;1813;52.016;8.714;2023-02-01T06:12:43;-16261.94;;;-139.71;76.70
3598;BME280;1813;52.016;8.714;2023-02-01T06:15:20;-16261.94;;;-139.71;76.45
3598;BME280;1813;52.016;8.714;2023-02-01T06:17:54;-16261.94;;;-139.71;76.38
3598;BME280;1813;52.016;8.714;2023-02-01T06:20:28;-16261.94;;;-139.71;76.23
3598;BME280;1813;52.016;8.714;2023-02-01T06:23:01;-16261.94;;;-139.71;76.18
3598;BME280;1813;52.016;8.714;2023-02-01T06:25:36;-16261.94;;;-139.71;75.93
3598;BME280;1813;52.016;8.714;2023-02-01T06:28:10;-16261.94;;;-139.71;75.78
3598;BME280;1813;52.016;8.714;2023-02-01T06:30:46;-16261.94;;;-139.71;75.70
3598;BME280;1813;52.016;8.714;2023-02-01T06:33:20;-16261.94;;;-139.71;75.37
3598;BME280;1813;52.016;8.714;2023-02-01T06:35:57;-16261.94;;;-139.71;75.09
3598;BME280;1813;52.016;8.714;2023-02-01T06:38:31;-16261.94;;;-139.71;74.88
3598;BME280;1813;52.016;8.714;2023-02-01T06:41:06;-16261.94;;;-139.71;74.81
3598;BME280;1813;52.016;8.714;2023-02-01T06:43:39;-16261.94;;;-139.71;74.65
3598;BME280;1813;52.016;8.714;2023-02-01T06:46:17;-16261.94;;;-139.71;74.46
3598;BME280;1813;52.016;8.714;2023-02-01T06:48:50;-16261.94;;;-139.71;74.30
3598;BME280;1813;52.016;8.714;2023-02-01T06:51:26;-16261.94;;;-139.71;74.22
3598;BME280;1813;52.016;8.714;2023-02-01T06:54:00;-16261.94;;;-139.71;74.14
3598;BME280;1813;52.016;8.714;2023-02-01T06:56:34;-16261.94;;;-139.71;74.17
3598;BME280;1813;52.016;8.714;2023-02-01T06:59:10;-16261.94;;;-139.71;74.15
3598;BME280;1813;52.016;8.714;2023-02-01T07:01:47;-16261.94;;;-139.71;74.01
3598;BME280;1813;52.016;8.714;2023-02-01T07:04:21;-16261.94;;;-139.71;73.87
3598;BME280;1813;52.016;8.714;2023-02-01T07:06:54;-16261.94;;;-139.71;73.74
3598;BME280;1813;52.016;8.714;2023-02-01T07:09:28;-16261.94;;;-139.71;73.75
3598;BME280;1813;52.016;8.714;2023-02-01T07:12:02;-16261.94;;;-139.71;73.70
3598;BME280;1813;52.016;8.714;2023-02-01T07:14:36;-16261.94;;;-139.71;73.41
3598;BME280;1813;52.016;8.714;2023-02-01T07:17:13;-16261.94;;;-139.71;73.44
3598;BME280;1813;52.016;8.714;2023-02-01T07:19:48;-16261.94;;;-139.71;73.47
3598;BME280;1813;52.016;8.714;2023-02-01T07:22:23;-16261.94;;;-139.71;73.51
3598;BME280;1813;52.016;8.714;2023-02-01T07:24:56;-16261.94;;;-139.71;73.62
3598;BME280;1813;52.016;8.714;2023-02-01T07:27:30;-16261.94;;;-139.71;73.48
3598;BME280;1813;52.016;8.714;2023-02-01T07:30:05;-16261.94;;;-139.71;73.60
3598;BME280;1813;52.016;8.714;2023-02-01T07:32:42;-16261.94;;;-139.71;73.51
3598;BME280;1813;52.016;8.714;2023-02-01T07:35:16;-16261.94;;;-139.71;73.41
3598;BME280;1813;52.016;8.714;2023-02-01T07:37:50;-16261.94;;;-139.71;73.36
3598;BME280;1813;52.016;8.714;2023-02-01T07:40:24;-16261.94;;;-139.71;73.33
3598;BME280;1813;52.016;8.714;2023-02-01T07:42:59;-16261.94;;;-139.71;73.39
3598;BME280;1813;52.016;8.714;2023-02-01T07:45:33;-16261.94;;;-139.71;73.48
3598;BME280;1813;52.016;8.714;2023-02-01T07:48:09;-16261.94;;;-139.71;73.26
3598;BME280;1813;52.016;8.714;2023-02-01T07:50:45;-16261.94;;;-139.71;73.29
3598;BME280;1813;52.016;8.714;2023-02-01T07:53:19;-16261.94;;;-139.71;73.21
3598;BME280;1813;52.016;8.714;2023-02-01T07:55:53;-16261.94;;;-139.71;73.26
3598;BME280;1813;52.016;8.714;2023-02-01T07:58:27;-16261.94;;;-139.71;73.26
3598;BME280;1813;52.016;8.714;2023-02-01T08:01:01;-16261.94;;;-139.71;73.25
3598;BME280;1813;52.016;8.714;2023-02-01T08:03:51;-16261.94;;;-139.71;73.14
3598;BME280;1813;52.016;8.714;2023-02-01T08:06:27;-16261.94;;;-139.71;73.29
3598;BME280;1813;52.016;8.714;2023-02-01T08:09:01;-16261.94;;;-139.71;73.24
3598;BME280;1813;52.016;8.714;2023-02-01T08:11:35;-16261.94;;;-139.71;73.18
3598;BME280;1813;52.016;8.714;2023-02-01T08:14:10;-16261.94;;;-139.71;73.13
3598;BME280;1813;52.016;8.714;2023-02-01T08:16:43;-16261.94;;;-139.71;73.30
3598;BME280;1813;52.016;8.714;2023-02-01T08:19:20;-16261.94;;;-139.71;73.39
3598;BME280;1813;52.016;8.714;2023-02-01T08:21:53;-16261.94;;;-139.71;73.59
3598;BME280;1813;52.016;8.714;2023-02-01T08:24:27;-16261.94;;;-139.71;73.73
3598;BME280;1813;52.016;8.714;2023-02-01T08:27:01;-16261.94;;;-139.71;73.93
3598;BME280;1813;52.016;8.714;2023-02-01T08:29:34;-16261.94;;;-139.71;74.13
3598;BME280;1813;52.016;8.714;2023-02-01T08:32:08;-16261.94;;;-139.71;74.21
3598;BME280;1813;52.016;8.714;2023-02-01T08:34:44;-16261.94;;;-139.71;73.88
3598;BME280;1813;52.016;8.714;2023-02-01T08:37:18;-16261.94;;;-139.71;73.53
3598;BME280;1813;52.016;8.714;2023-02-01T08:39:53;-16261.94;;;-139.71;73.30
3598;BME280;1813;52.016;8.714;2023-02-01T08:42:28;-16261.94;;;-139.71;73.09
3598;BME280;1813;52.016;8.714;2023-02-01T08:45:14;-16261.94;;;-139.71;73.11
3598;BME280;1813;52.016;8.714;2023-02-01T08:47:49;-16261.94;;;-139.71;73.18
3598;BME280;1813;52.016;8.714;2023-02-01T08:50:26;-16261.94;;;-139.71;73.34
3598;BME280;1813;52.016;8.714;2023-02-01T08:53:00;-16261.94;;;-139.71;73.04
3598;BME280;1813;52.016;8.714;2023-02-01T08:55:34;-16261.94;;;-139.71;73.04
3598;BME280;1813;52.016;8.714;2023-02-01T08:58:07;-16261.94;;;-139.71;72.92
3598;BME280;1813;52.016;8.714;2023-02-01T09:00:41;-16261.94;;;-139.71;72.94
3598;BME280;1813;52.016;8.714;2023-02-01T09:03:16;-16261.94;;;-139.71;73.01
3598;BME280;1813;52.016;8.714;2023-02-01T09:05:52;-16261.94;;;-139.71;72.91
3598;BME280;1813;52.016;8.714;2023-02-01T09:08:32;-16261.94;;;-139.71;72.78
3598;BME280;1813;52.016;8.714;2023-02-01T09:11:12;-16261.94;;;-139.71;72.62
3598;BME280;1813;52.016;8.714;2023-02-01T09:13:46;-16261.94;;;-139.71;72.40
3598;BME280;1813;52.016;8.714;2023-02-01T09:16:21;-16261.94;;;-139.71;72.32
3598;BME280;1813;52.016;8.714;2023-02-01T09:18:54;-16261.94;;;-139.71;72.41
3598;BME280;1813;52.016;8.714;2023-02-01T09:21:31;-16261.94;;;-139.71;72.86
3598;BME280;1813;52.016;8.714;2023-02-01T09:24:05;-16261.94;;;-139.71;71.78
3598;BME280;1813;52.016;8.714;2023-02-01T09:26:39;-16261.94;;;-139.71;70.41
3598;BME280;1813;52.016;8.714;2023-02-01T09:29:13;-16261.94;;;-139.71;69.84
3598;BME280;1813;52.016;8.714;2023-02-01T09:31:47;-16261.94;;;-139.71;69.73
3598;BME280;1813;52.016;8.714;2023-02-01T09:34:21;-16261.94;;;-139.71;69.70
3598;BME280;1813;52.016;8.714;2023-02-01T09:36:57;-16261.94;;;-139.71;69.72
3598;BME280;1813;52.016;8.714;2023-02-01T09:39:30;-16261.94;;;-139.71;69.46
3598;BME280;1813;52.016;8.714;2023-02-01T09:42:16;-16261.94;;;-139.71;69.50
3598;BME280;1813;52.016;8.714;2023-02-01T09:45:06;-16261.94;;;-139.71;69.12
3598;BME280;1813;52.016;8.714;2023-02-01T09:47:49;-16261.94;;;-139.71;69.24
3598;BME280;1813;52.016;8.714;2023-02-01T09:50:30;-16261.94;;;-139.71;69.18
3598;BME280;1813;52.016;8.714;2023-02-01T09:53:16;-16261.94;;;-139.71;68.85
3598;BME280;1813;52.016;8.714;2023-02-01T09:55:55;-16261.94;;;-139.71;68.49
3598;BME280;1813;52.016;8.714;2023-02-01T09:58:35;-16261.94;;;-139.71;68.52
3598;BME280;1813;52.016;8.714;2023-02-01T10:01:15;-16261.94;;;-139.71;68.49
3598;BME280;1813;52.016;8.714;2023-02-01T10:04:05;-16261.94;;;-139.71;68.42
3598;BME280;1813;52.016;8.714;2023-02-01T10:06:59;-16261.94;;;-139.71;68.48
3598;BME280;1813;52.016;8.714;2023-02-01T10:10:01;-16261.94;;;-139.71;68.34
3598;BME280;1813;52.016;8.714;2023-02-01T10:13:14;-16261.94;;;-139.71;68.16
3598;BME280;1813;52.016;8.714;2023-02-01T10:16:13;-16261.94;;;-139.71;68.12
3598;BME280;1813;52.016;8.714;2023-02-01T10:19:30;-16261.94;;;-139.71;68.22
3598;BME280;1813;52.016;8.714;2023-02-01T10:22:23;-16261.94;;;-139.71;68.22
3598;BME280;1813;52.016;8.714;2023-02-01T10:25:13;-16261.94;;;-139.71;68.05
3598;BME280;1813;52.016;8.714;2023-02-01T10:27:56;-16261.94;;;-139.71;67.94
3598;BME280;1813;52.016;8.714;2023-02-01T10:30:41;-16261.94;;;-139.71;67.84
3598;BME280;1813;52.016;8.714;2023-02-01T10:33:25;-16261.94;;;-139.71;67.71
3598;BME280;1813;52.016;8.714;2023-02-01T10:36:08;-16261.94;;;-139.71;67.83
3598;BME280;1813;52.016;8.714;2023-02-01T10:38:48;-16261.94;;;-139.71;67.88
3598;BME280;1813;52.016;8.714;2023-02-01T10:41:36;-16261.94;;;-139.71;67.72
3598;BME280;1813;52.016;8.714;2023-02-01T10:44:16;-16261.94;;;-139.71;67.89
3598;BME280;1813;52.016;8.714;2023-02-01T10:46:54;-16261.94;;;-139.71;68.12
3598;BME280;1813;52.016;8.714;2023-02-01T10:49:38;-16261.94;;;-139.71;67.85
3598;BME280;1813;52.016;8.714;2023-02-01T10:52:20;-16261.94;;;-139.71;68.07
3598;BME280;1813;52.016;8.714;2023-02-01T10:55:27;-16261.94;;;-139.71;68.34
3598;BME280;1813;52.016;8.714;2023-02-01T10:58:19;-16261.94;;;-139.71;68.42
3598;BME280;1813;52.016;8.714;2023-02-01T11:00:58;-16261.94;;;-139.71;68.31
3598;BME280;1813;52.016;8.714;2023-02-01T11:03:44;-16261.94;;;-139.71;68.38
3598;BME280;1813;52.016;8.714;2023-02-01T11:06:30;-16261.94;;;-139.71;68.34
3598;BME280;1813;52.016;8.714;2023-02-01T11:09:18;-16261.94;;;-139.71;68.19
3598;BME280;1813;52.016;8.714;2023-02-01T11:11:58;-16261.94;;;-139.71;68.27
3598;BME280;1813;52.016;8.714;2023-02-01T11:14:38;-16261.94;;;-139.71;68.43
3598;BME280;1813;52.016;8.714;2023-02-01T11:17:27;-16261.94;;;-139.71;68.40
3598;BME280;1813;52.016;8.714;2023-02-01T11:20:17;-16261.94;;;-139.71;68.43
3598;BME280;1813;52.016;8.714;2023-02-01T11:22:58;-16261.94;;;-139.71;68.38
3598;BME280;1813;52.016;8.714;2023-02-01T11:25:39;-16261.94;;;-139.71;68.16
3598;BME280;1813;52.016;8.714;2023-02-01T11:28:29;-16261.94;;;-139.71;68.00
3598;BME280;1813;52.016;8.714;2023-02-01T11:31:14;-16261.94;;;-139.71;67.99
3598;BME280;1813;52.016;8.714;2023-02-01T11:33:52;-16261.94;;;-139.71;68.01
3598;BME280;1813;52.016;8.714;2023-02-01T11:36:35;-16261.94;;;-139.71;67.87
3598;BME280;1813;52.016;8.714;2023-02-01T11:39:25;-16261.94;;;-139.71;67.60
3598;BME280;1813;52.016;8.714;2023-02-01T11:42:05;-16261.94;;;-139.71;67.53
3598;BME280;1813;52.016;8.714;2023-02-01T11:44:46;-16261.94;;;-139.71;67.21
3598;BME280;1813;52.016;8.714;2023-02-01T11:47:26;-16261.94;;;-139.71;67.06
3598;BME280;1813;52.016;8.714;2023-02-01T11:50:15;-16261.94;;;-139.71;67.28
3598;BME280;1813;52.016;8.714;2023-02-01T11:55:58;-16261.94;;;-139.71;67.37
3598;BME280;1813;52.016;8.714;2023-02-01T11:59:00;-16261.94;;;-139.71;67.46
3598;BME280;1813;52.016;8.714;2023-02-01T12:02:01;-16261.94;;;-139.71;68.26
3598;BME280;1813;52.016;8.714;2023-02-01T12:05:11;-16261.94;;;-139.71;69.06
3598;BME280;1813;52.016;8.714;2023-02-01T12:08:10;-16261.94;;;-139.71;69.69
3598;BME280;1813;52.016;8.714;2023-02-01T12:10:56;-16261.94;;;-139.71;70.23
3598;BME280;1813;52.016;8.714;2023-02-01T12:13:47;-16261.94;;;-139.71;70.65
3598;BME280;1813;52.016;8.714;2023-02-01T12:16:37;-16261.94;;;-139.71;71.26
3598;BME280;1813;52.016;8.714;2023-02-01T12:22:24;-16261.94;;;-139.71;72.92
3598;BME280;1813;52.016;8.714;2023-02-01T12:25:16;-16261.94;;;-139.71;73.56
3598;BME280;1813;52.016;8.714;2023-02-01T12:28:14;-16261.94;;;-139.71;74.19
3598;BME280;1813;52.016;8.714;2023-02-01T12:31:19;-16261.94;;;-139.71;74.93
3598;BME280;1813;52.016;8.714;2023-02-01T12:34:10;-16261.94;;;-139.71;75.11
3598;BME280;1813;52.016;8.714;2023-02-01T12:36:58;-16261.94;;;-139.71;75.71
3598;BME280;1813;52.016;8.714;2023-02-01T12:39:40;-16261.94;;;-139.71;75.91
3598;BME280;1813;52.016;8.714;2023-02-01T12:42:22;-16261.94;;;-139.71;76.48
3598;BME280;1813;52.016;8.714;2023-02-01T12:45:02;-16261.94;;;-139.71;76.65
3598;BME280;1813;52.016;8.714;2023-02-01T12:47:44;-16261.94;;;-139.71;77.07
3598;BME280;1813;52.016;8.714;2023-02-01T12:50:26;-16261.94;;;-139.71;77.23
3598;BME280;1813;52.016;8.714;2023-02-01T12:53:08;-16261.94;;;-139.71;77.49
3598;BME280;1813;52.016;8.714;2023-02-01T12:55:50;-16261.94;;;-139.71;77.92
3598;BME280;1813;52.016;8.714;2023-02-01T12:58:31;-16261.94;;;-139.71;78.54
3598;BME280;1813;52.016;8.714;2023-02-01T13:01:09;-16261.94;;;-139.71;78.85
3598;BME280;1813;52.016;8.714;2023-02-01T13:03:53;-16261.94;;;-139.71;79.18
3598;BME280;1813;52.016;8.714;2023-02-01T13:06:34;-16261.94;;;-139.71;79.39
3598;BME280;1813;52.016;8.714;2023-02-01T13:09:18;-16261.94;;;-139.71;79.83
3598;BME280;1813;52.016;8.714;2023-02-01T13:12:00;-16261.94;;;-139.71;80.32
3598;BME280;1813;52.016;8.714;2023-02-01T13:14:41;-16261.94;;;-139.71;80.59
3598;BME280;1813;52.016;8.714;2023-02-01T13:17:20;-16261.94;;;-139.71;81.20
3598;BME280;1813;52.016;8.714;2023-02-01T13:19:58;-16261.94;;;-139.71;81.51
3598;BME280;1813;52.016;8.714;2023-02-01T13:22:36;-16261.94;;;-139.71;81.79
3598;BME280;1813;52.016;8.714;2023-02-01T13:25:19;-16261.94;;;-139.71;82.17
3598;BME280;1813;52.016;8.714;2023-02-01T13:28:06;-16261.94;;;-139.71;82.36
3598;BME280;1813;52.016;8.714;2023-02-01T13:30:55;-16261.94;;;-139.71;82.64
3598;BME280;1813;52.016;8.714;2023-02-01T13:33:46;-16261.94;;;-139.71;82.70
3598;BME280;1813;52.016;8.714;2023-02-01T13:36:46;-16261.94;;;-139.71;82.65
3598;BME280;1813;52.016;8.714;2023-02-01T13:39:50;-16261.94;;;-139.71;82.59
3598;BME280;1813;52.016;8.714;2023-02-01T13:42:29;-16261.94;;;-139.71;82.46
3598;BME280;1813;52.016;8.714;2023-02-01T13:45:14;-16261.94;;;-139.71;82.48
3598;BME280;1813;52.016;8.714;2023-02-01T13:47:51;-16261.94;;;-139.71;82.61
3598;BME280;1813;52.016;8.714;2023-02-01T13:50:29;-16261.94;;;-139.71;82.60
3598;BME280;1813;52.016;8.714;2023-02-01T13:53:14;-16261.94;;;-139.71;82.66
3598;BME280;1813;52.016;8.714;2023-02-01T13:55:56;-16261.94;;;-139.71;82.70
3598;BME280;1813;52.016;8.714;2023-02-01T13:58:33;-16261.94;;;-139.71;82.64
3598;BME280;1813;52.016;8.714;2023-02-01T14:07:30;-16261.94;;;-139.71;82.19